Time;durP1;ratioP1;P1;durP2;ratioP2;P2;SDS_P1;SDS_P2;PMS_P1;PMS_P2;Temp;Humidity;BMP_temperature;BMP_pressure;BME280_temperature;BME280_humidity;BME280_pressure;Samples;Min_cycle;Max_cycle;Signal;HPM_P1;HPM_P2
2023/06/23 00:00:20;;;;;;;21.27;12.27;;;;;;;30.80;60.08;97880.84;4443287;32;20814;-78
2023/06/23 00:02:48;;;;;;;24.15;12.27;;;;;;;29.26;67.35;97883.47;4442974;32;20106;-78
2023/06/23 00:05:15;;;;;;;22.45;12.30;;;;;;;28.92;68.94;97887.53;4443336;32;20077;-78
2023/06/23 00:07:42;;;;;;;20.42;13.40;;;;;;;27.81;76.28;97882.19;4443459;32;20157;-78
2023/06/23 00:10:10;;;;;;;23.12;12.45;;;;;;;28.20;74.75;97874.06;4443080;32;20110;-78
2023/06/23 00:12:41;;;;;;;21.75;12.77;;;;;;;28.66;71.59;97872.09;4443469;32;20105;-78
2023/06/23 00:15:15;;;;;;;22.77;12.07;;;;;;;30.47;63.06;97874.50;4443277;32;20150;-79
2023/06/23 00:17:47;;;;;;;22.10;12.55;;;;;;;31.28;59.20;97880.88;4442844;32;20109;-78
2023/06/23 00:20:14;;;;;;;21.75;13.23;;;;;;;30.97;60.08;97883.19;4442954;32;20105;-78
2023/06/23 00:22:43;;;;;;;22.17;12.30;;;;;;;30.95;59.83;97878.06;4443253;32;20090;-79
2023/06/23 00:25:10;;;;;;;27.92;12.57;;;;;;;30.61;60.78;97883.38;4429942;32;20337;-78
2023/06/23 00:27:42;;;;;;;20.92;12.85;;;;;;;30.61;60.12;97883.38;4443590;32;20118;-78
2023/06/23 00:30:11;;;;;;;23.65;12.70;;;;;;;30.17;62.21;97885.38;4443524;32;20090;-78
2023/06/23 00:32:39;;;;;;;26.92;13.15;;;;;;;30.81;59.22;97873.69;4443621;32;20148;-78
2023/06/23 00:35:08;;;;;;;22.27;14.02;;;;;;;30.85;59.52;97874.97;4443690;32;20129;-78
2023/06/23 00:37:38;;;;;;;24.60;13.68;;;;;;;30.30;61.95;97879.31;4443481;32;20090;-78
2023/06/23 00:40:10;;;;;;;27.67;13.90;;;;;;;30.11;62.95;97878.19;4443755;32;20098;-78
2023/06/23 00:42:47;;;;;;;23.23;12.60;;;;;;;30.18;63.06;97871.03;4443829;32;20088;-78
2023/06/23 00:45:15;;;;;;;21.48;11.88;;;;;;;31.27;58.68;97873.91;4443909;32;20097;-78
2023/06/23 00:47:43;;;;;;;22.60;12.00;;;;;;;31.21;58.96;97864.03;4443639;32;20512;-78
2023/06/23 00:50:20;;;;;;;18.15;11.73;;;;;;;30.36;62.46;97859.91;4416675;32;20151;-79
2023/06/23 00:52:52;;;;;;;23.45;12.18;;;;;;;30.68;60.98;97852.34;4443798;32;20176;-78
2023/06/23 00:55:20;;;;;;;19.95;11.95;;;;;;;30.78;61.09;97858.94;4443578;32;20125;-78
2023/06/23 00:57:49;;;;;;;19.27;12.93;;;;;;;30.78;60.83;97866.09;4442608;32;20154;-78
2023/06/23 01:00:19;;;;;;;28.45;13.15;;;;;;;31.06;58.34;97868.69;4442667;32;20109;-78
2023/06/23 01:02:52;;;;;;;26.65;13.35;;;;;;;29.33;62.30;97879.03;4443747;32;20107;-78
2023/06/23 01:05:21;;;;;;;23.95;13.20;;;;;;;27.97;68.01;97876.78;4443006;32;20086;-78
2023/06/23 01:07:57;;;;;;;22.92;13.82;;;;;;;28.90;64.75;97880.78;4429312;32;20153;-78
2023/06/23 01:10:44;;;;;;;26.73;13.93;;;;;;;29.24;64.51;97888.13;4442390;32;20109;-78
2023/06/23 01:13:20;;;;;;;;;;;;;;;28.46;67.86;97882.44;4442517;32;20151;-78
2023/06/23 01:15:53;;;;;;;21.25;12.48;;;;;;;28.35;69.49;97880.22;4442509;32;19994;-78
2023/06/23 01:18:31;;;;;;;21.52;13.00;;;;;;;27.76;74.61;97881.94;4428484;32;20097;-78
2023/06/23 01:21:03;;;;;;;26.92;16.37;;;;;;;29.18;68.33;97871.12;4441630;32;20133;-78
2023/06/23 01:23:47;;;;;;;28.92;17.42;;;;;;;28.64;70.01;97865.31;4442566;32;20085;-78
2023/06/23 01:26:42;;;;;;;28.87;17.27;;;;;;;27.98;73.66;97861.69;4442105;32;20074;-78
2023/06/23 01:29:09;;;;;;;31.55;17.92;;;;;;;28.49;70.99;97860.00;4428289;32;20448;-78
2023/06/23 01:31:56;;;;;;;25.83;16.02;;;;;;;28.52;71.12;97862.31;4428380;32;20445;-78
2023/06/23 01:34:28;;;;;;;28.00;17.15;;;;;;;29.05;68.48;97861.16;4427776;32;20107;-78
2023/06/23 01:37:01;;;;;;;30.23;18.25;;;;;;;28.04;73.08;97855.66;4442070;32;20124;-78
2023/06/23 01:39:30;;;;;;;26.35;17.52;;;;;;;27.89;73.54;97853.81;4414883;32;20106;-78
2023/06/23 01:42:00;;;;;;;29.08;18.27;;;;;;;26.95;79.01;97854.06;4428020;32;20228;-78
2023/06/23 01:44:29;;;;;;;29.05;17.62;;;;;;;27.42;76.81;97853.97;4427700;32;20428;-78
2023/06/23 01:46:57;;;;;;;31.48;17.52;;;;;;;28.02;74.70;97849.69;4427783;32;20086;-79
2023/06/23 01:49:28;;;;;;;31.98;18.00;;;;;;;28.65;70.95;97851.84;4427747;32;20349;-78
2023/06/23 01:51:56;;;;;;;32.55;18.27;;;;;;;28.66;69.54;97848.19;4427767;32;20108;-78
2023/06/23 01:54:25;;;;;;;37.95;18.42;;;;;;;29.57;64.91;97851.31;4441492;32;20085;-78
2023/06/23 01:56:52;;;;;;;33.30;19.48;;;;;;;28.72;69.52;97846.66;4428201;32;20062;-78
2023/06/23 01:59:20;;;;;;;31.25;18.73;;;;;;;28.23;72.25;97850.63;4427802;32;20156;-78
2023/06/23 02:01:48;;;;;;;33.50;18.27;;;;;;;29.35;66.68;97848.62;4441940;32;20104;-78
2023/06/23 02:04:15;;;;;;;28.95;18.55;;;;;;;28.05;71.91;97836.91;4441802;32;20085;-78
2023/06/23 02:06:44;;;;;;;29.85;17.67;;;;;;;29.55;64.94;97843.50;4427841;32;20080;-78
2023/06/23 02:09:19;;;;;;;26.90;16.70;;;;;;;29.16;65.46;97840.44;4441177;32;20153;-78
2023/06/23 02:11:47;;;;;;;25.58;15.45;;;;;;;29.33;64.80;97841.81;4441585;32;20158;-78
2023/06/23 02:14:15;;;;;;;24.50;14.55;;;;;;;29.10;67.86;97832.19;4442237;32;20142;-78
2023/06/23 02:16:43;;;;;;;23.27;14.75;;;;;;;28.81;71.14;97825.09;4442011;32;20142;-78
2023/06/23 02:19:11;;;;;;;26.58;15.65;;;;;;;28.23;74.70;97823.28;4441575;32;20117;-78
2023/06/23 02:21:39;;;;;;;25.58;16.30;;;;;;;27.91;77.22;97814.66;4441529;32;20101;-78
2023/06/23 02:24:06;;;;;;;23.58;15.98;;;;;;;27.95;76.71;97817.78;4427512;32;20809;-78
2023/06/23 02:26:35;;;;;;;25.10;15.70;;;;;;;28.02;76.62;97801.97;4427343;32;20107;-78
2023/06/23 02:29:03;;;;;;;26.48;16.75;;;;;;;28.26;74.65;97809.66;4427181;32;20144;-78
2023/06/23 02:31:30;;;;;;;26.87;16.37;;;;;;;28.11;75.07;97808.84;4428018;32;20166;-78
2023/06/23 02:33:57;;;;;;;23.87;15.85;;;;;;;28.32;73.70;97816.91;4441535;32;20089;-78
2023/06/23 02:36:30;;;;;;;24.35;16.80;;;;;;;28.89;70.70;97812.75;4441114;32;20428;-78
2023/06/23 02:38:58;;;;;;;27.50;17.12;;;;;;;28.55;71.43;97810.69;4441495;32;20107;-78
2023/06/23 02:41:28;;;;;;;26.25;16.65;;;;;;;28.85;69.48;97812.28;4427317;32;20172;-78
2023/06/23 02:43:57;;;;;;;24.95;16.90;;;;;;;29.07;68.30;97813.16;4426894;32;20154;-78
2023/06/23 02:46:28;;;;;;;26.55;16.67;;;;;;;29.29;66.83;97814.00;4441372;32;20086;-78
2023/06/23 02:49:02;;;;;;;23.87;15.95;;;;;;;29.50;65.47;97808.72;4441276;32;20356;-78
2023/06/23 02:51:30;;;;;;;30.35;16.85;;;;;;;29.71;64.49;97805.19;4426819;32;20101;-78
2023/06/23 02:54:04;;;;;;;25.98;15.15;;;;;;;29.33;64.77;97815.25;4426908;32;20133;-78
2023/06/23 02:56:33;;;;;;;27.73;16.52;;;;;;;28.98;65.88;97812.47;4440657;32;20112;-78
2023/06/23 02:59:05;;;;;;;29.30;16.05;;;;;;;28.59;67.91;97817.25;4427048;32;20157;-78
2023/06/23 03:01:39;;;;;;;24.60;16.40;;;;;;;29.14;65.19;97819.38;4441094;32;20101;-78
2023/06/23 03:04:06;;;;;;;25.37;14.90;;;;;;;28.43;68.66;97832.38;4440883;32;20120;-79
2023/06/23 03:06:34;;;;;;;25.15;15.40;;;;;;;28.55;67.46;97842.53;4441063;32;20090;-78
2023/06/23 03:09:03;;;;;;;25.02;14.32;;;;;;;27.92;70.25;97828.75;4441013;32;20097;-78
2023/06/23 03:11:30;;;;;;;29.98;15.27;;;;;;;28.43;67.20;97829.72;4440604;32;20116;-78
2023/06/23 03:13:57;;;;;;;25.35;15.45;;;;;;;27.92;69.96;97828.75;4440755;32;20089;-78
2023/06/23 03:16:43;;;;;;;27.08;15.43;;;;;;;28.63;68.09;97830.00;4441052;32;20094;-78
2023/06/23 03:19:32;;;;;;;27.45;16.83;;;;;;;29.13;65.77;97819.53;4440316;32;20065;-78
2023/06/23 03:22:11;;;;;;;23.15;16.30;;;;;;;30.13;62.31;97827.44;4440722;32;20089;-78
2023/06/23 03:24:39;;;;;;;25.17;15.77;;;;;;;29.41;64.58;97830.25;4442229;32;20081;-79
2023/06/23 03:27:08;;;;;;;26.75;15.57;;;;;;;29.64;64.21;97836.22;4442591;32;20101;-78
2023/06/23 03:29:39;;;;;;;25.98;14.85;;;;;;;30.50;60.91;97845.66;4428261;32;20106;-78
2023/06/23 03:32:07;;;;;;;26.00;15.00;;;;;;;28.68;67.42;97854.13;4427646;32;20106;-78
2023/06/23 03:34:48;;;;;;;24.92;15.85;;;;;;;28.03;71.16;97862.78;4428349;32;20086;-78
2023/06/23 03:37:15;;;;;;;28.92;16.08;;;;;;;27.06;77.06;97886.31;4441948;32;20149;-78
2023/06/23 03:39:44;;;;;;;25.02;16.73;;;;;;;25.44;89.80;97900.56;4427662;32;20117;-78
2023/06/23 03:42:11;;;;;;;27.70;17.23;;;;;;;25.94;90.15;97910.19;4427942;32;20101;-78
2023/06/23 03:44:40;;;;;;;28.87;16.77;;;;;;;26.69;85.35;97907.28;4428021;32;20115;-78
2023/06/23 03:47:19;;;;;;;30.10;16.73;;;;;;;26.51;87.25;97915.44;4427704;32;20103;-78
2023/06/23 03:50:23;;;;;;;30.70;18.37;;;;;;;26.44;88.43;97920.56;4427814;32;20101;-78
2023/06/23 03:52:50;;;;;;;28.40;18.25;;;;;;;26.01;92.10;97924.41;4378318;32;20155;-78
2023/06/23 03:55:20;;;;;;;24.98;17.80;;;;;;;26.41;89.21;97920.91;4429885;32;20117;-78
2023/06/23 03:57:49;;;;;;;27.25;17.50;;;;;;;27.04;84.38;97916.62;4441905;32;20093;-78
2023/06/23 04:00:17;;;;;;;28.55;16.52;;;;;;;27.75;79.32;97918.19;4441355;32;20137;-78
2023/06/23 04:02:45;;;;;;;32.38;17.52;;;;;;;27.31;81.38;97918.78;4441523;32;20463;-78
2023/06/23 04:05:15;;;;;;;26.25;17.95;;;;;;;28.00;78.31;97920.66;4427813;32;20407;-78
2023/06/23 04:07:45;;;;;;;28.05;18.08;;;;;;;28.04;76.87;97924.59;4441393;32;20139;-78
2023/06/23 04:10:13;;;;;;;26.05;17.58;;;;;;;28.50;73.98;97915.56;4442737;32;20161;-79
2023/06/23 04:12:41;;;;;;;29.23;17.87;;;;;;;29.49;69.23;97917.88;4430266;32;20357;-77
2023/06/23 04:15:09;;;;;;;25.50;16.58;;;;;;;30.12;66.15;97911.75;4445209;32;20096;-80
2023/06/23 04:17:39;;;;;;;26.75;17.35;;;;;;;30.07;65.91;97921.31;4449704;32;20149;-80
2023/06/23 04:20:08;;;;;;;26.58;17.15;;;;;;;30.43;65.04;97913.19;4823104;26;20053;-81
2023/06/23 04:22:37;;;;;;;26.10;16.75;;;;;;;30.37;64.79;97919.28;4442859;32;20093;-81
2023/06/23 04:25:05;;;;;;;25.23;17.52;;;;;;;31.08;62.11;97922.59;4615592;26;20083;-80
2023/06/23 04:27:34;;;;;;;28.50;18.12;;;;;;;31.80;59.90;97924.69;4424857;32;20080;-83
2023/06/23 04:30:04;;;;;;;25.50;16.58;;;;;;;32.05;58.76;97932.91;4456129;32;20117;-82
2023/06/23 04:32:31;;;;;;;24.95;16.62;;;;;;;32.62;57.25;97941.31;4443157;32;20104;-82
2023/06/23 04:34:59;;;;;;;27.85;17.10;;;;;;;31.69;59.36;97935.94;4455488;32;20104;-83
2023/06/23 04:37:37;;;;;;;24.52;18.00;;;;;;;31.64;59.66;97946.38;4456351;32;20097;-82
2023/06/23 04:40:41;;;;;;;24.60;16.48;;;;;;;32.83;55.59;97956.31;4456309;32;20113;-82
2023/06/23 04:43:23;;;;;;;26.15;17.05;;;;;;;33.03;54.96;97965.09;4442947;32;20125;-83
2023/06/23 04:46:16;;;;;;;23.30;16.15;;;;;;;32.53;56.40;97956.72;4443419;32;20142;-82
2023/06/23 04:51:59;;;;;;;23.98;16.30;;;;;;;33.80;51.46;97941.91;4456139;32;20074;-83
2023/06/23 04:54:29;;;;;;;26.05;16.50;;;;;;;33.97;50.47;97944.91;4456105;32;20077;-82
2023/06/23 04:57:01;;;;;;;27.02;17.30;;;;;;;33.41;52.96;97942.97;4455813;32;20054;-83
2023/06/23 04:59:34;;;;;;;24.95;16.30;;;;;;;33.54;52.27;97951.72;4455849;32;20110;-82
2023/06/23 05:02:02;;;;;;;24.65;15.68;;;;;;;33.27;53.14;97947.50;4442489;32;20082;-82
2023/06/23 05:04:32;;;;;;;23.48;15.93;;;;;;;33.34;52.65;97945.63;4453917;32;20057;-83
2023/06/23 05:07:02;;;;;;;23.67;15.45;;;;;;;33.70;51.77;97939.69;4453437;32;20103;-82
2023/06/23 05:09:33;;;;;;;23.60;15.18;;;;;;;34.52;48.87;97943.22;4439189;32;20058;-82
2023/06/23 05:12:01;;;;;;;23.85;16.17;;;;;;;35.86;45.58;97944.13;4448917;32;20097;-82
2023/06/23 05:14:29;;;;;;;23.15;15.40;;;;;;;36.00;44.55;97942.06;4433344;32;20444;-82
2023/06/23 05:16:59;;;;;;;23.38;14.63;;;;;;;36.57;43.60;97950.41;4431342;32;20089;-83
2023/06/23 05:19:29;;;;;;;22.33;15.05;;;;;;;36.77;42.79;97956.25;4443374;32;20079;-82
2023/06/23 05:21:57;;;;;;;22.25;14.85;;;;;;;37.75;40.46;97955.34;4427917;32;20497;-82
2023/06/23 05:24:25;;;;;;;20.52;14.50;;;;;;;37.43;41.13;97938.00;4440918;32;20102;-82
2023/06/23 05:26:55;;;;;;;24.27;14.87;;;;;;;36.45;43.55;97940.50;4441163;32;20100;-82
2023/06/23 05:29:24;;;;;;;22.30;14.63;;;;;;;37.25;42.16;97944.38;4440842;32;20441;-82
2023/06/23 05:31:52;;;;;;;25.12;14.90;;;;;;;37.46;41.79;97948.31;4440783;32;20093;-82
2023/06/23 05:34:20;;;;;;;25.00;14.80;;;;;;;38.98;38.66;97955.38;4440856;32;20152;-82
2023/06/23 05:36:48;;;;;;;21.02;14.00;;;;;;;39.82;37.41;97945.03;4427003;32;20105;-82
2023/06/23 05:39:17;;;;;;;21.12;14.38;;;;;;;40.61;35.36;97965.13;4426577;32;20504;-82
2023/06/23 05:41:44;;;;;;;22.90;13.88;;;;;;;40.88;34.88;97951.53;4440865;32;20718;-82
2023/06/23 05:44:11;;;;;;;21.33;14.05;;;;;;;40.70;34.37;97963.56;4440677;32;20115;-82
2023/06/23 05:46:40;;;;;;;26.37;13.88;;;;;;;41.42;33.60;97962.06;4439140;32;20148;-82
2023/06/23 05:49:12;;;;;;;19.85;13.62;;;;;;;39.12;36.45;97956.66;4426852;32;20081;-82
2023/06/23 05:51:40;;;;;;;21.50;13.40;;;;;;;41.04;34.27;97958.63;4440693;32;20147;-82
2023/06/23 05:54:10;;;;;;;20.80;13.60;;;;;;;41.48;33.24;97961.81;4426748;32;20105;-82
2023/06/23 05:56:50;;;;;;;21.02;13.68;;;;;;;41.78;32.84;97961.06;4426911;32;20089;-82
2023/06/23 05:59:24;;;;;;;20.23;12.98;;;;;;;41.82;32.71;97962.16;4426474;32;20512;-82
2023/06/23 06:01:55;;;;;;;18.73;13.30;;;;;;;39.90;35.32;97960.78;4426405;32;20151;-81
2023/06/23 06:04:25;;;;;;;23.30;12.43;;;;;;;41.12;33.54;97962.72;4426752;32;20127;-81
2023/06/23 06:06:55;;;;;;;18.85;13.02;;;;;;;41.09;33.42;97958.66;4426801;32;20089;-81
2023/06/23 06:09:23;;;;;;;18.50;12.55;;;;;;;40.85;34.56;97957.47;4429815;32;20101;-82
2023/06/23 06:11:51;;;;;;;18.33;11.10;;;;;;;40.40;35.55;97951.44;4449558;32;20122;-81
2023/06/23 06:14:19;;;;;;;17.87;11.38;;;;;;;40.82;33.48;97961.47;4437426;32;20449;-82
2023/06/23 06:16:47;;;;;;;17.85;11.30;;;;;;;40.26;33.90;97960.28;4446115;32;20425;-82
2023/06/23 06:19:22;;;;;;;21.77;11.30;;;;;;;39.47;35.05;97968.97;4440718;32;20424;-82
2023/06/23 06:21:56;;;;;;;18.23;11.30;;;;;;;39.91;34.94;97959.72;4440128;32;20463;-81
2023/06/23 06:24:25;;;;;;;21.50;11.93;;;;;;;37.34;38.90;97953.75;4426090;32;20164;-81
2023/06/23 06:26:56;;;;;;;20.52;11.30;;;;;;;38.28;38.41;97966.75;4425167;32;20089;-80
2023/06/23 06:29:33;;;;;;;20.85;11.60;;;;;;;38.30;37.70;97964.63;4427462;32;20098;-84
2023/06/23 06:32:06;;;;;;;17.95;11.18;;;;;;;36.42;41.91;97950.91;4427928;32;20074;-84
2023/06/23 06:34:34;;;;;;;20.67;11.60;;;;;;;37.59;39.65;97948.00;4436541;32;20157;-84
2023/06/23 06:37:01;;;;;;;17.85;11.45;;;;;;;37.35;39.71;97945.41;4444108;32;20114;-84
2023/06/23 06:39:29;;;;;;;26.37;12.35;;;;;;;37.92;38.67;97941.88;4426848;32;20145;-82
2023/06/23 06:41:59;;;;;;;19.70;10.98;;;;;;;36.90;41.10;97928.31;4430993;32;20518;-82
2023/06/23 06:44:26;;;;;;;18.08;10.75;;;;;;;34.98;43.44;97926.66;4433139;32;20146;-83
2023/06/23 06:46:56;;;;;;;21.98;10.70;;;;;;;35.68;41.63;97922.69;4443247;32;20148;-82
2023/06/23 06:49:24;;;;;;;18.17;10.05;;;;;;;36.29;40.08;97925.06;4441898;32;20081;-83
2023/06/23 06:51:52;;;;;;;19.60;10.13;;;;;;;37.07;38.88;97929.22;4440159;32;20153;-82
2023/06/23 06:54:19;;;;;;;21.73;10.10;;;;;;;36.99;39.64;97933.09;4439647;32;20109;-82
2023/06/23 06:56:46;;;;;;;17.10;8.52;;;;;;;36.70;40.04;97951.00;4438354;32;20157;-83
2023/06/23 06:59:14;;;;;;;18.75;8.90;;;;;;;36.86;38.55;97933.34;4424919;32;20457;-83
2023/06/23 07:01:42;;;;;;;16.58;8.60;;;;;;;36.74;38.47;97927.16;4438761;32;20089;-82
2023/06/23 07:04:09;;;;;;;17.30;8.88;;;;;;;36.18;39.92;97921.31;4424511;32;20173;-82
2023/06/23 07:06:36;;;;;;;19.55;8.85;;;;;;;36.74;39.02;97927.16;4438790;32;20089;-84
2023/06/23 07:09:04;;;;;;;19.42;9.23;;;;;;;35.40;40.82;97931.34;4438381;32;20128;-83
2023/06/23 07:11:31;;;;;;;18.10;9.48;;;;;;;36.14;40.48;97933.56;4438747;32;20150;-83
2023/06/23 07:13:59;;;;;;;18.92;8.57;;;;;;;36.82;38.93;97934.06;4438754;32;20112;-83
2023/06/23 07:16:30;;;;;;;15.48;8.75;;;;;;;37.31;38.68;97924.59;4438323;32;20149;-83
2023/06/23 07:18:57;;;;;;;17.27;8.68;;;;;;;36.76;39.73;97916.97;4438679;32;20081;-83
2023/06/23 07:21:24;;;;;;;17.45;8.38;;;;;;;36.57;39.98;97932.41;4438598;32;20097;-83
2023/06/23 07:23:51;;;;;;;17.83;8.30;;;;;;;36.30;40.22;97933.94;4419796;32;147225;-82
2023/06/23 07:26:18;;;;;;;21.77;8.88;;;;;;;35.89;40.31;97916.81;4439689;32;20102;-83
2023/06/23 07:28:45;;;;;;;17.92;8.13;;;;;;;34.86;42.98;97917.72;4439513;32;20503;-82
2023/06/23 07:31:12;;;;;;;18.65;9.02;;;;;;;33.77;45.83;97918.25;4439258;32;20101;-83
2023/06/23 07:33:40;;;;;;;14.87;7.20;;;;;;;34.32;44.42;97921.13;4439471;32;20116;-82
2023/06/23 07:36:07;;;;;;;16.12;7.00;;;;;;;34.66;42.89;97912.56;4439601;32;20078;-82
2023/06/23 07:38:34;;;;;;;16.10;7.53;;;;;;;34.63;42.97;97917.56;4439078;32;20162;-82
2023/06/23 07:41:01;;;;;;;15.73;7.47;;;;;;;33.64;44.71;97933.38;4439366;32;20445;-83
2023/06/23 07:43:28;;;;;;;15.18;6.78;;;;;;;34.11;44.61;97933.88;4439104;32;20149;-82
2023/06/23 07:45:55;;;;;;;16.87;7.10;;;;;;;33.83;45.06;97938.81;4439016;32;20161;-82
2023/06/23 07:48:22;;;;;;;16.62;7.62;;;;;;;32.97;47.56;97934.69;4439277;32;20108;-82
2023/06/23 07:50:49;;;;;;;18.37;7.68;;;;;;;33.89;45.09;97941.44;4439129;32;20093;-82
2023/06/23 07:53:16;;;;;;;15.00;7.87;;;;;;;33.84;45.53;97943.13;4438881;32;20115;-83
2023/06/23 07:55:43;;;;;;;15.80;7.20;;;;;;;34.15;44.82;97937.78;4439240;32;20100;-84
2023/06/23 07:58:10;;;;;;;16.25;7.85;;;;;;;33.85;45.35;97937.56;4438886;32;20090;-82
2023/06/23 08:00:36;;;;;;;21.17;7.18;;;;;;;33.85;45.02;97952.78;4438910;32;20101;-82
2023/06/23 08:03:03;;;;;;;17.80;7.97;;;;;;;33.82;45.71;97939.84;4439090;32;20101;-82
2023/06/23 08:05:31;;;;;;;14.90;7.75;;;;;;;34.28;45.13;97949.41;4438754;32;20089;-82
2023/06/23 08:07:58;;;;;;;16.48;7.95;;;;;;;35.34;42.75;97946.47;4439180;32;20125;-82
2023/06/23 08:10:25;;;;;;;16.98;8.65;;;;;;;35.45;42.94;97958.31;4440553;32;20482;-82
2023/06/23 08:12:52;;;;;;;13.70;6.85;;;;;;;35.45;42.31;97953.78;4441079;32;20169;-82
2023/06/23 08:15:19;;;;;;;15.40;7.40;;;;;;;34.58;43.11;97952.25;4441423;32;20089;-81
2023/06/23 08:17:46;;;;;;;16.12;8.15;;;;;;;34.29;45.51;97946.50;4441167;32;20111;-81
2023/06/23 08:20:17;;;;;;;16.05;7.82;;;;;;;33.97;45.38;97940.38;4440753;32;20094;-81
2023/06/23 08:22:44;;;;;;;16.35;7.25;;;;;;;34.47;45.29;97941.22;4441337;32;20116;-82
2023/06/23 08:25:12;;;;;;;16.02;7.25;;;;;;;34.82;43.10;97947.88;4440962;32;20124;-81
2023/06/23 08:27:39;;;;;;;15.40;7.28;;;;;;;35.11;42.12;97936.44;4440938;32;20196;-82
2023/06/23 08:30:06;;;;;;;18.25;7.03;;;;;;;34.45;42.52;97951.34;4440999;32;20453;-82
2023/06/23 08:32:33;;;;;;;16.15;8.18;;;;;;;34.22;44.26;97954.56;4441216;32;20176;-82
2023/06/23 08:35:00;;;;;;;13.90;6.93;;;;;;;33.17;46.76;97947.12;4440963;32;20104;-82
2023/06/23 08:37:28;;;;;;;17.87;6.15;;;;;;;32.62;46.55;97931.44;4441179;32;20136;-81
2023/06/23 08:39:57;;;;;;;13.75;6.93;;;;;;;32.08;48.08;97947.69;4440835;32;20572;-80
2023/06/23 08:42:25;;;;;;;20.50;7.22;;;;;;;31.89;49.02;97946.66;4440703;32;20105;-81
2023/06/23 08:44:52;;;;;;;11.15;5.57;;;;;;;32.68;47.47;97935.16;4441611;32;20062;-81
2023/06/23 08:47:19;;;;;;;13.02;5.72;;;;;;;31.63;49.09;97932.22;4427526;32;20539;-81
2023/06/23 08:49:48;;;;;;;15.77;7.25;;;;;;;31.77;49.81;97935.75;4440688;32;20667;-82
2023/06/23 08:52:17;;;;;;;16.77;6.00;;;;;;;32.23;48.26;97934.97;4427186;32;20105;-81
2023/06/23 08:54:44;;;;;;;19.95;6.85;;;;;;;32.03;48.95;97932.31;4440780;32;20100;-84
2023/06/23 08:57:12;;;;;;;16.00;6.95;;;;;;;32.50;48.34;97927.78;4441032;32;20132;-82
2023/06/23 08:59:39;;;;;;;17.05;6.05;;;;;;;32.75;47.21;97928.78;4427039;32;20162;-82
2023/06/23 09:02:07;;;;;;;16.77;7.12;;;;;;;32.31;48.63;97925.94;4440666;32;20089;-83
2023/06/23 09:04:34;;;;;;;16.98;6.18;;;;;;;32.31;49.40;97929.44;4441078;32;20470;-82
2023/06/23 09:07:01;;;;;;;20.70;6.80;;;;;;;32.99;46.58;97937.16;4440798;32;20232;-82
2023/06/23 09:09:28;;;;;;;16.12;6.68;;;;;;;33.52;45.71;97947.66;4440574;32;20101;-82
2023/06/23 09:11:55;;;;;;;14.77;6.07;;;;;;;34.26;44.12;97965.69;4441143;32;20161;-82
2023/06/23 09:14:22;;;;;;;12.90;6.20;;;;;;;33.35;46.08;97966.03;4427197;32;20158;-83
2023/06/23 09:16:53;;;;;;;14.75;5.62;;;;;;;33.31;45.54;97962.94;4426812;32;20493;-82
2023/06/23 09:19:21;;;;;;;22.87;5.95;;;;;;;33.32;44.75;97972.59;4440840;32;20362;-82
2023/06/23 09:21:49;;;;;;;13.75;5.53;;;;;;;32.99;46.94;97982.59;4440585;32;20085;-81
2023/06/23 09:24:16;;;;;;;16.45;6.68;;;;;;;32.60;47.14;97986.94;4440125;32;20479;-81
2023/06/23 09:26:54;;;;;;;14.57;5.70;;;;;;;33.65;44.85;97985.84;4440927;32;20097;-82
2023/06/23 09:29:22;;;;;;;14.60;6.68;;;;;;;33.52;44.82;97988.59;4440559;32;20144;-82
2023/06/23 09:31:51;;;;;;;15.20;5.25;;;;;;;33.74;44.76;97988.25;4440976;32;20582;-82
2023/06/23 09:34:29;;;;;;;13.90;5.70;;;;;;;33.97;44.13;97990.41;4440768;32;20092;-82
2023/06/23 09:37:16;;;;;;;11.95;5.65;;;;;;;33.23;45.14;97987.22;4440698;32;20078;-81
2023/06/23 09:39:43;;;;;;;;;;;;;;;32.45;46.86;97986.34;4441054;32;20106;-81
2023/06/23 09:42:12;;;;;;;11.23;4.68;;;;;;;33.17;43.95;97996.06;4440586;32;19977;-82
2023/06/23 09:44:41;;;;;;;13.27;4.62;;;;;;;32.75;44.34;97995.56;4440431;32;20435;-82
2023/06/23 09:47:08;;;;;;;12.37;4.75;;;;;;;32.42;44.52;97986.72;4440793;32;20104;-82
2023/06/23 09:49:43;;;;;;;13.25;5.25;;;;;;;33.18;45.45;97999.56;4440666;32;20515;-82
2023/06/23 09:52:16;;;;;;;10.38;4.12;;;;;;;34.14;42.31;97995.03;4440406;32;20108;-82
2023/06/23 09:54:43;;;;;;;10.75;4.12;;;;;;;34.07;41.49;97999.59;4426909;32;20160;-83
2023/06/23 09:57:15;;;;;;;10.80;4.40;;;;;;;34.11;41.46;97997.31;4440766;32;20097;-82
2023/06/23 09:59:44;;;;;;;12.73;4.43;;;;;;;33.14;43.40;97998.38;4440669;32;20097;-82
2023/06/23 10:02:25;;;;;;;15.52;5.45;;;;;;;33.92;42.42;97997.25;4440615;32;20105;-82
2023/06/23 10:05:01;;;;;;;13.82;4.60;;;;;;;33.94;41.97;97991.66;4440474;32;20369;-82
2023/06/23 10:07:28;;;;;;;11.75;4.25;;;;;;;32.46;44.44;97988.81;4440631;32;20125;-82
2023/06/23 10:09:57;;;;;;;14.57;4.35;;;;;;;32.36;43.84;97988.41;4440341;32;20452;-82
2023/06/23 10:12:44;;;;;;;10.68;3.70;;;;;;;32.41;44.65;97985.91;4440081;32;20108;-82
2023/06/23 10:15:11;;;;;;;10.65;4.72;;;;;;;32.77;43.24;97993.50;4440651;32;20124;-82
2023/06/23 10:17:38;;;;;;;11.75;4.03;;;;;;;33.02;42.83;97987.50;4440694;32;20419;-82
2023/06/23 10:20:06;;;;;;;9.80;3.90;;;;;;;33.30;43.09;97995.22;4440076;32;20575;-82
2023/06/23 10:22:35;;;;;;;10.68;3.67;;;;;;;33.01;43.06;97986.69;4440388;32;20136;-82
2023/06/23 10:25:05;;;;;;;10.05;3.58;;;;;;;33.20;42.46;97981.50;4440259;32;20151;-82
2023/06/23 10:27:35;;;;;;;11.75;3.75;;;;;;;33.14;42.13;97990.34;4426264;32;20085;-82
2023/06/23 10:30:03;;;;;;;11.63;3.65;;;;;;;33.08;42.31;97984.81;4440447;32;20387;-82
2023/06/23 10:32:34;;;;;;;10.80;3.70;;;;;;;33.52;41.83;97991.25;4439217;32;20133;-82
2023/06/23 10:35:08;;;;;;;8.15;2.90;;;;;;;32.59;42.25;97979.94;4426610;32;20148;-81
2023/06/23 10:37:35;;;;;;;11.73;3.72;;;;;;;32.01;43.87;97986.88;4440412;32;20085;-81
2023/06/23 10:40:19;;;;;;;10.65;3.92;;;;;;;32.10;44.56;98005.16;4439833;32;20456;-82
2023/06/23 10:42:50;;;;;;;8.32;3.35;;;;;;;32.40;43.45;98004.81;4440210;32;20142;-81
2023/06/23 10:45:17;;;;;;;10.77;3.35;;;;;;;32.36;44.26;97999.06;4440354;32;20116;-81
2023/06/23 10:47:44;;;;;;;13.90;3.83;;;;;;;32.41;44.04;98001.12;4439878;32;20145;-81
2023/06/23 10:50:12;;;;;;;12.20;3.75;;;;;;;32.96;43.49;98007.84;4426216;32;20167;-81
2023/06/23 10:52:39;;;;;;;8.77;2.62;;;;;;;32.98;42.90;98005.81;4426300;32;20158;-81
2023/06/23 10:55:35;;;;;;;12.63;3.40;;;;;;;32.30;44.11;97994.53;4439897;32;20104;-82
2023/06/23 10:58:09;;;;;;;10.35;3.30;;;;;;;32.45;45.18;97994.34;4440083;32;20422;-82
2023/06/23 11:00:37;;;;;;;10.90;4.18;;;;;;;32.03;45.01;97995.53;4439542;32;20440;-82
2023/06/23 11:03:10;;;;;;;12.35;4.00;;;;;;;32.51;44.59;98009.53;4439922;32;20109;-82
2023/06/23 11:05:44;;;;;;;8.27;3.65;;;;;;;33.39;42.67;98007.38;4426636;32;20181;-82
2023/06/23 11:08:13;;;;;;;12.98;3.50;;;;;;;33.20;42.68;98005.56;4439787;32;20169;-82
2023/06/23 11:11:01;;;;;;;9.68;3.83;;;;;;;33.06;42.02;98008.25;4439833;32;20102;-82
2023/06/23 11:13:49;;;;;;;10.65;3.70;;;;;;;32.57;43.63;97990.03;4439839;32;20145;-83
2023/06/23 11:16:17;;;;;;;11.75;3.17;;;;;;;32.45;42.55;97992.50;4439670;32;20441;-83
2023/06/23 11:18:54;;;;;;;12.88;3.22;;;;;;;31.97;43.48;97991.00;4439676;32;20103;-83
2023/06/23 11:21:31;;;;;;;11.93;3.92;;;;;;;32.79;43.05;97996.78;4439756;32;20174;-82
2023/06/23 11:24:17;;;;;;;13.25;3.50;;;;;;;32.38;43.71;97991.66;4439483;32;20097;-79
2023/06/23 11:27:00;;;;;;;9.57;3.80;;;;;;;32.66;43.59;97987.97;4439626;32;20453;-81
2023/06/23 11:29:27;;;;;;;11.25;3.90;;;;;;;32.33;43.66;97980.81;4439416;32;20081;-82
2023/06/23 11:32:12;;;;;;;13.85;3.87;;;;;;;32.48;43.19;97993.94;4439722;32;20153;-82
2023/06/23 11:35:01;;;;;;;8.73;3.60;;;;;;;32.04;43.86;97989.16;4439641;32;20147;-81
2023/06/23 11:37:31;;;;;;;13.45;3.10;;;;;;;32.18;44.34;97988.16;4426057;32;20097;-82
2023/06/23 11:39:58;;;;;;;12.95;3.75;;;;;;;31.81;43.92;97986.88;4439416;32;20156;-80